Time;durP1;ratioP1;P1;durP2;ratioP2;P2;SDS_P1;SDS_P2;PMS_P1;PMS_P2;Temp;Humidity;BMP_temperature;BMP_pressure;BME280_temperature;BME280_humidity;BME280_pressure;Samples;Min_cycle;Max_cycle;Signal;HPM_P1;HPM_P2
2020/12/02 00:00:36;;;;;;;45.30;7.38;;;22.20;72.80;;;;;;4916249;29;20028;-82
2020/12/02 00:03:11;;;;;;;40.08;7.88;;;22.00;73.60;;;;;;4917271;29;20028;-83
2020/12/02 00:05:51;;;;;;;44.83;8.05;;;22.00;73.70;;;;;;4917255;29;20154;-82
2020/12/02 00:08:40;;;;;;;44.95;7.57;;;22.10;73.10;;;;;;4917979;29;20372;-82
2020/12/02 00:11:19;;;;;;;43.78;7.30;;;22.10;73.70;;;;;;4894575;29;20044;-80
2020/12/02 00:13:49;;;;;;;47.30;9.00;;;22.10;73.30;;;;;;4931845;29;20027;-79
2020/12/02 00:16:28;;;;;;;48.90;8.35;;;22.10;74.30;;;;;;4923341;29;20566;-83
2020/12/02 00:18:56;;;;;;;36.50;7.82;;;22.20;73.20;;;;;;4901718;29;20032;-81
2020/12/02 00:21:26;;;;;;;40.20;7.18;;;22.20;73.10;;;;;;4915178;29;20031;-79
2020/12/02 00:23:57;;;;;;;47.20;8.32;;;22.10;74.10;;;;;;4918257;29;20032;-79
2020/12/02 00:26:25;;;;;;;44.33;7.93;;;22.20;74.40;;;;;;4910376;29;20039;-81
2020/12/02 00:28:52;;;;;;;44.22;7.05;;;22.30;73.10;;;;;;4915892;29;20036;-82
2020/12/02 00:31:21;;;;;;;41.90;7.03;;;22.40;73.10;;;;;;4915257;29;20048;-83
2020/12/02 00:33:48;;;;;;;45.35;7.22;;;22.50;72.10;;;;;;4916336;29;20130;-85
2020/12/02 00:36:16;;;;;;;40.75;7.65;;;22.50;72.60;;;;;;4915816;29;20028;-83
2020/12/02 00:38:44;;;;;;;45.70;8.15;;;22.40;71.70;;;;;;4899401;29;20028;-82
2020/12/02 00:41:12;;;;;;;50.72;8.55;;;22.40;71.10;;;;;;4915874;29;20062;-81
2020/12/02 00:43:40;;;;;;;36.80;6.63;;;22.70;71.70;;;;;;4898857;29;20043;-83
2020/12/02 00:46:09;;;;;;;37.55;7.25;;;23.10;70.10;;;;;;4915525;29;20040;-82
2020/12/02 00:48:36;;;;;;;39.67;7.43;;;23.10;68.80;;;;;;4915227;29;20028;-79
2020/12/02 00:51:05;;;;;;;40.65;6.60;;;23.00;68.70;;;;;;4915170;29;20036;-79
2020/12/02 00:53:35;;;;;;;34.97;7.07;;;22.80;70.10;;;;;;4899056;29;20039;-81
2020/12/02 00:56:05;;;;;;;43.38;7.38;;;22.70;70.60;;;;;;4915664;29;20478;-81
2020/12/02 00:58:56;;;;;;;36.92;7.28;;;22.80;70.50;;;;;;4914059;29;20036;-80
2020/12/02 01:01:48;;;;;;;39.47;6.95;;;23.30;70.10;;;;;;4915254;29;20488;-81
2020/12/02 01:04:18;;;;;;;;;;;23.70;68.90;;;;;;4916716;29;20110;-81
2020/12/02 01:06:47;;;;;;;44.65;7.65;;;23.70;68.90;;;;;;4915937;29;19915;-81
2020/12/02 01:09:20;;;;;;;37.05;6.28;;;23.50;69.30;;;;;;4915865;29;20056;-81
2020/12/02 01:11:49;;;;;;;44.17;6.90;;;23.30;68.70;;;;;;4915962;29;20122;-80
2020/12/02 01:14:18;;;;;;;43.33;7.40;;;22.90;69.10;;;;;;4915941;29;20024;-80
2020/12/02 01:16:49;;;;;;;37.17;6.88;;;22.60;71.00;;;;;;4915648;29;20024;-79
2020/12/02 01:19:24;;;;;;;41.50;7.70;;;22.50;70.80;;;;;;4915666;29;20040;-79
2020/12/02 01:21:56;;;;;;;39.92;6.03;;;22.50;71.50;;;;;;4915208;29;20055;-78
2020/12/02 01:24:25;;;;;;;;;;;22.50;70.40;;;;;;4915776;29;20035;-79
2020/12/02 01:27:00;;;;;;;41.78;6.40;;;22.40;71.30;;;;;;4898023;29;20325;-79
2020/12/02 01:29:28;;;;;;;40.83;7.03;;;22.50;71.20;;;;;;4914920;29;20884;-79
2020/12/02 01:31:57;;;;;;;34.28;6.57;;;22.40;70.90;;;;;;4898549;29;20373;-79
2020/12/02 01:34:26;;;;;;;39.30;6.47;;;22.40;70.40;;;;;;4915466;29;20027;-79
2020/12/02 01:37:06;;;;;;;34.10;7.13;;;22.40;70.80;;;;;;4902924;29;20051;-80
2020/12/02 01:39:41;;;;;;;43.00;7.45;;;22.50;71.80;;;;;;4917008;29;20035;-79
2020/12/02 01:42:13;;;;;;;32.58;6.53;;;22.40;71.60;;;;;;4922648;29;20039;-78
2020/12/02 01:44:41;;;;;;;39.45;6.65;;;22.20;72.60;;;;;;4936086;29;20024;-79
2020/12/02 01:47:23;;;;;;;39.15;6.78;;;22.10;72.10;;;;;;4918723;29;20028;-79
2020/12/02 01:50:06;;;;;;;35.63;7.03;;;22.10;71.80;;;;;;4918820;29;20040;-78
2020/12/02 01:52:51;;;;;;;43.60;6.32;;;22.30;71.00;;;;;;4910721;29;20423;-78
2020/12/02 01:55:28;;;;;;;38.75;6.25;;;22.30;70.70;;;;;;4918409;29;20067;-79
2020/12/02 01:57:59;;;;;;;35.42;5.32;;;22.30;71.10;;;;;;4918946;29;20044;-77
2020/12/02 02:00:37;;;;;;;43.50;7.47;;;22.30;70.60;;;;;;4918044;29;20094;-79
2020/12/02 02:03:16;;;;;;;;;;;22.20;71.00;;;;;;4919306;29;20038;-79
2020/12/02 02:05:44;;;;;;;33.03;7.03;;;22.30;71.60;;;;;;4918270;29;19956;-80
2020/12/02 02:08:13;;;;;;;34.17;6.63;;;22.40;69.80;;;;;;4918766;29;20466;-81
2020/12/02 02:10:45;;;;;;;41.92;7.15;;;22.50;70.80;;;;;;4917497;29;20040;-78
2020/12/02 02:13:31;;;;;;;33.40;5.78;;;22.60;69.60;;;;;;4919218;29;20138;-79
2020/12/02 02:16:17;;;;;;;38.28;6.20;;;22.60;69.20;;;;;;4918933;29;20368;-78
2020/12/02 02:18:45;;;;;;;34.55;6.50;;;22.70;69.90;;;;;;4900189;29;20033;-79
2020/12/02 02:21:20;;;;;;;35.55;6.97;;;22.70;69.10;;;;;;4915336;29;20100;-79
2020/12/02 02:23:48;;;;;;;40.15;7.07;;;22.70;69.60;;;;;;4903084;29;20024;-79
2020/12/02 02:26:15;;;;;;;37.40;7.03;;;22.60;70.90;;;;;;4918830;29;20024;-78
2020/12/02 02:28:48;;;;;;;33.03;6.32;;;22.40;70.70;;;;;;4918488;29;20051;-77
2020/12/02 02:31:20;;;;;;;34.55;6.88;;;22.40;70.80;;;;;;4918914;29;20480;-77
2020/12/02 02:33:49;;;;;;;38.20;6.60;;;22.40;71.10;;;;;;4919101;29;20063;-81
2020/12/02 02:36:21;;;;;;;35.25;6.47;;;22.20;71.80;;;;;;4920861;29;20475;-80
2020/12/02 02:38:48;;;;;;;38.55;8.02;;;22.10;72.10;;;;;;4919260;29;20407;-80
2020/12/02 02:41:16;;;;;;;40.00;7.45;;;21.90;71.40;;;;;;4918515;29;20063;-81
2020/12/02 02:43:43;;;;;;;43.40;6.50;;;21.80;72.90;;;;;;4918557;29;20080;-81
2020/12/02 02:46:11;;;;;;;34.17;6.50;;;21.70;72.80;;;;;;4918310;29;20094;-80
2020/12/02 02:48:38;;;;;;;38.97;6.68;;;21.80;73.60;;;;;;4917075;29;20032;-81
2020/12/02 02:51:06;;;;;;;37.47;6.85;;;21.70;72.50;;;;;;4916867;29;20036;-80
2020/12/02 02:53:37;;;;;;;43.90;7.43;;;21.70;73.40;;;;;;4918874;29;20497;-81
2020/12/02 02:56:05;;;;;;;40.80;6.75;;;21.60;72.80;;;;;;4918585;29;20055;-81
2020/12/02 02:58:32;;;;;;;39.95;7.28;;;21.50;73.30;;;;;;4918337;29;20432;-82
2020/12/02 03:01:02;;;;;;;36.30;6.40;;;21.50;73.20;;;;;;4918098;29;20036;-80
2020/12/02 03:03:30;;;;;;;41.90;8.02;;;21.50;73.60;;;;;;4917390;29;20027;-80
2020/12/02 03:06:03;;;;;;;39.45;6.40;;;21.60;73.50;;;;;;4918332;29;20382;-80
2020/12/02 03:08:32;;;;;;;40.28;7.63;;;21.70;73.00;;;;;;4921677;29;20039;-82
2020/12/02 03:11:04;;;;;;;36.17;6.80;;;21.70;72.70;;;;;;4916783;29;20083;-80
2020/12/02 03:13:45;;;;;;;36.25;7.20;;;21.80;72.60;;;;;;4919149;29;20549;-80
2020/12/02 03:16:44;;;;;;;41.85;7.20;;;21.90;72.10;;;;;;4912184;29;20039;-80
2020/12/02 03:19:28;;;;;;;36.58;6.72;;;21.90;72.20;;;;;;4913964;29;20122;-83
2020/12/02 03:22:11;;;;;;;35.70;6.10;;;21.80;71.30;;;;;;4917691;29;20039;-82
2020/12/02 03:24:43;;;;;;;44.63;7.43;;;21.70;71.90;;;;;;4919276;29;20036;-80
2020/12/02 03:27:11;;;;;;;35.88;6.10;;;21.50;75.80;;;;;;4916260;29;20363;-81
2020/12/02 03:29:38;;;;;;;42.13;7.40;;;21.30;77.00;;;;;;4917418;29;20067;-80
2020/12/02 03:32:06;;;;;;;40.20;6.15;;;21.30;74.50;;;;;;4917448;29;20024;-80
2020/12/02 03:34:34;;;;;;;36.67;6.13;;;21.50;73.70;;;;;;4916832;29;20020;-80
2020/12/02 03:37:01;;;;;;;32.85;6.22;;;21.50;73.20;;;;;;4921211;29;20082;-80
2020/12/02 03:39:28;;;;;;;39.60;6.97;;;21.60;71.70;;;;;;4916624;29;20501;-80
2020/12/02 03:41:56;;;;;;;40.97;5.82;;;21.70;71.10;;;;;;4917707;29;20032;-80
2020/12/02 03:44:23;;;;;;;37.65;6.20;;;21.70;71.80;;;;;;4917293;29;20058;-81
2020/12/02 03:46:51;;;;;;;39.70;7.65;;;21.90;73.10;;;;;;4924529;29;20049;-81
2020/12/02 03:49:18;;;;;;;35.85;6.28;;;21.80;71.60;;;;;;4915908;29;20035;-79
2020/12/02 03:51:45;;;;;;;40.70;6.50;;;21.90;72.20;;;;;;4916471;29;20040;-81
2020/12/02 03:54:13;;;;;;;35.28;6.82;;;21.80;71.90;;;;;;4916825;29;20048;-80
2020/12/02 03:56:40;;;;;;;33.85;6.93;;;21.80;72.00;;;;;;4915509;29;20123;-80
2020/12/02 03:59:07;;;;;;;40.33;7.32;;;21.70;72.70;;;;;;4915861;29;20024;-81
2020/12/02 04:01:35;;;;;;;30.83;5.60;;;21.80;73.30;;;;;;4917478;29;20099;-78
2020/12/02 04:04:02;;;;;;;35.90;6.55;;;21.90;73.50;;;;;;4916081;29;20035;-80
2020/12/02 04:06:29;;;;;;;40.38;7.10;;;21.90;72.50;;;;;;4931159;29;20038;-80
2020/12/02 04:08:57;;;;;;;43.15;6.47;;;21.80;71.50;;;;;;4934358;29;20102;-80
2020/12/02 04:11:27;;;;;;;31.95;5.72;;;21.90;72.20;;;;;;4916706;29;20515;-81
2020/12/02 04:13:54;;;;;;;33.55;5.57;;;21.90;72.20;;;;;;4917039;29;20028;-81
2020/12/02 04:16:22;;;;;;;35.75;6.53;;;22.00;70.60;;;;;;4917332;29;20542;-80
2020/12/02 04:18:49;;;;;;;33.95;6.20;;;22.00;69.40;;;;;;4900636;29;20115;-79
2020/12/02 04:21:24;;;;;;;34.53;5.60;;;22.00;70.20;;;;;;4900766;29;20071;-80
2020/12/02 04:23:53;;;;;;;40.47;7.43;;;22.10;70.70;;;;;;4916799;29;20039;-80
2020/12/02 04:26:21;;;;;;;37.80;6.45;;;22.10;71.30;;;;;;4917168;29;20166;-80
2020/12/02 04:28:49;;;;;;;37.55;6.00;;;22.10;70.60;;;;;;4899995;29;20125;-81
2020/12/02 04:31:16;;;;;;;35.13;5.60;;;21.90;71.80;;;;;;4916672;29;20502;-80
2020/12/02 04:33:44;;;;;;;30.40;5.82;;;21.90;71.80;;;;;;4916520;29;20024;-81
2020/12/02 04:36:12;;;;;;;34.42;5.50;;;21.90;72.80;;;;;;4899224;29;20123;-80
2020/12/02 04:38:40;;;;;;;35.03;6.47;;;21.90;69.10;;;;;;4880929;29;20043;-81
2020/12/02 04:41:15;;;;;;;28.23;5.50;;;21.90;69.80;;;;;;4897435;29;20032;-81
2020/12/02 04:43:46;;;;;;;33.70;5.68;;;21.90;69.50;;;;;;4897522;29;20391;-81
2020/12/02 04:46:19;;;;;;;32.85;6.90;;;21.90;69.90;;;;;;4898158;29;20024;-81
2020/12/02 04:48:54;;;;;;;31.15;5.63;;;22.00;70.50;;;;;;4897262;29;20029;-80
2020/12/02 04:51:29;;;;;;;34.70;5.80;;;21.90;69.10;;;;;;4880657;29;20323;-80
2020/12/02 04:53:58;;;;;;;35.92;6.68;;;21.90;70.80;;;;;;4881058;29;20052;-81
2020/12/02 04:56:28;;;;;;;34.42;6.53;;;21.80;71.90;;;;;;4897175;29;20403;-81
2020/12/02 04:58:57;;;;;;;39.90;6.18;;;21.90;72.60;;;;;;4908770;29;20066;-82
2020/12/02 05:01:29;;;;;;;34.60;5.90;;;21.90;72.40;;;;;;4916139;29;20119;-79
2020/12/02 05:04:14;;;;;;;32.28;5.68;;;21.90;71.90;;;;;;4898645;29;20447;-80
2020/12/02 05:06:44;;;;;;;30.90;5.00;;;21.70;72.40;;;;;;4916636;29;20020;-81
2020/12/02 05:09:18;;;;;;;34.65;6.32;;;21.80;72.40;;;;;;4916610;29;20036;-81
2020/12/02 05:12:05;;;;;;;34.03;6.45;;;21.70;71.50;;;;;;4916680;29;20046;-80
2020/12/02 05:15:09;;;;;;;34.10;5.50;;;21.60;72.00;;;;;;4916144;29;20058;-81
2020/12/02 05:17:39;;;;;;;35.80;5.80;;;21.60;72.30;;;;;;4915278;29;20514;-81
2020/12/02 05:20:21;;;;;;;28.70;5.05;;;21.50;72.30;;;;;;4916165;29;20056;-82
2020/12/02 05:22:53;;;;;;;29.40;5.63;;;21.50;73.10;;;;;;4916350;29;20497;-80
2020/12/02 05:25:32;;;;;;;30.08;5.40;;;21.50;73.40;;;;;;4916425;29;20110;-81
2020/12/02 05:28:26;;;;;;;33.97;6.40;;;21.50;73.60;;;;;;4915740;29;20100;-81
2020/12/02 05:31:14;;;;;;;30.40;4.93;;;21.50;72.50;;;;;;4915247;29;20118;-80
2020/12/02 05:33:42;;;;;;;33.08;6.53;;;21.60;72.60;;;;;;4915412;29;20107;-81
2020/12/02 05:36:23;;;;;;;33.08;5.57;;;21.50;73.50;;;;;;4915517;29;20034;-81
2020/12/02 05:39:11;;;;;;;36.35;6.57;;;21.50;73.80;;;;;;4915872;29;20119;-81
2020/12/02 05:41:39;;;;;;;28.52;5.65;;;21.50;73.80;;;;;;4897692;29;20025;-81
2020/12/02 05:44:21;;;;;;;34.85;6.05;;;21.50;73.20;;;;;;4896688;29;20025;-81
2020/12/02 05:47:12;;;;;;;33.33;6.38;;;21.50;73.30;;;;;;4901370;29;20043;-82
2020/12/02 05:49:48;;;;;;;30.30;5.85;;;21.60;73.00;;;;;;4914553;29;20430;-82
2020/12/02 05:52:46;;;;;;;39.88;6.13;;;21.60;73.10;;;;;;4908228;29;20123;-80
2020/12/02 05:55:23;;;;;;;40.05;6.53;;;21.50;72.80;;;;;;4891716;29;20037;-80
2020/12/02 05:58:05;;;;;;;32.95;4.70;;;21.50;72.50;;;;;;4897318;29;20103;-81
2020/12/02 06:00:33;;;;;;;29.55;4.75;;;21.50;72.90;;;;;;4913058;29;20038;-83
2020/12/02 06:03:01;;;;;;;31.00;5.25;;;21.60;72.50;;;;;;4912628;29;20383;-81
2020/12/02 06:05:30;;;;;;;28.13;5.40;;;21.50;73.00;;;;;;4913131;29;20450;-81
2020/12/02 06:08:01;;;;;;;37.00;5.78;;;21.50;72.50;;;;;;4913539;29;20032;-81
2020/12/02 06:10:44;;;;;;;33.13;5.07;;;21.50;72.50;;;;;;4913093;29;20036;-82
2020/12/02 06:13:39;;;;;;;38.28;5.30;;;21.40;72.10;;;;;;4911644;29;20063;-82
2020/12/02 06:16:13;;;;;;;34.58;5.68;;;21.20;72.60;;;;;;4908459;29;20052;-83
2020/12/02 06:18:41;;;;;;;32.83;5.90;;;21.20;72.90;;;;;;4911388;29;20101;-80
2020/12/02 06:21:54;;;;;;;25.90;4.20;;;21.20;71.70;;;;;;4911585;29;20123;-82
2020/12/02 06:24:46;;;;;;;33.08;7.10;;;21.20;72.70;;;;;;4873163;29;20044;-83
2020/12/02 06:27:29;;;;;;;34.67;5.40;;;21.20;73.00;;;;;;4895728;29;20028;-81
2020/12/02 06:30:14;;;;;;;22.08;4.68;;;21.20;72.00;;;;;;4903446;29;20047;-82
2020/12/02 06:33:02;;;;;;;32.55;6.07;;;21.20;72.10;;;;;;4917654;29;20439;-83
2020/12/02 06:35:29;;;;;;;28.02;4.85;;;21.20;73.30;;;;;;4923828;29;20067;-83
2020/12/02 06:38:23;;;;;;;31.08;5.50;;;21.10;72.60;;;;;;4918484;29;20032;-81
2020/12/02 06:41:00;;;;;;;26.75;5.68;;;21.10;73.20;;;;;;4899153;29;20035;-82
2020/12/02 06:43:32;;;;;;;32.55;5.10;;;21.10;73.30;;;;;;4916216;29;20036;-81
2020/12/02 06:46:13;;;;;;;30.17;5.68;;;21.10;72.70;;;;;;4917450;29;20091;-82
2020/12/02 06:48:41;;;;;;;33.95;5.82;;;21.20;72.00;;;;;;4916748;29;20036;-84
2020/12/02 06:51:17;;;;;;;26.17;5.65;;;21.10;71.90;;;;;;4916204;29;20048;-82
2020/12/02 06:53:46;;;;;;;32.25;5.72;;;21.10;72.30;;;;;;4916358;29;20047;-82
2020/12/02 06:56:18;;;;;;;23.23;4.82;;;21.10;72.30;;;;;;4916100;29;20135;-82
2020/12/02 06:59:01;;;;;;;28.10;4.60;;;21.10;73.20;;;;;;4916398;29;20829;-82
2020/12/02 07:01:31;;;;;;;26.60;5.05;;;21.10;72.60;;;;;;4916801;29;20391;-82
2020/12/02 07:04:05;;;;;;;30.20;4.68;;;21.10;73.10;;;;;;4916696;29;20036;-83
2020/12/02 07:06:34;;;;;;;26.83;5.82;;;21.00;72.50;;;;;;4915391;29;20075;-81
2020/12/02 07:09:04;;;;;;;28.70;5.60;;;20.90;73.20;;;;;;4915453;29;20440;-81
2020/12/02 07:11:37;;;;;;;31.60;6.72;;;20.90;74.50;;;;;;4915492;29;20138;-81
2020/12/02 07:14:21;;;;;;;27.88;5.18;;;20.90;74.20;;;;;;4915774;29;20087;-82
2020/12/02 07:16:55;;;;;;;27.35;4.82;;;20.90;73.50;;;;;;4915914;29;20511;-82
2020/12/02 07:19:30;;;;;;;26.77;4.57;;;20.90;73.50;;;;;;4915991;29;20482;-81
2020/12/02 07:22:13;;;;;;;32.15;5.70;;;20.80;74.70;;;;;;4915926;29;20034;-82
2020/12/02 07:24:52;;;;;;;30.85;5.50;;;20.70;75.10;;;;;;4916149;29;20040;-82
2020/12/02 07:27:23;;;;;;;34.90;5.27;;;20.70;77.10;;;;;;4916272;29;20390;-82
2020/12/02 07:30:01;;;;;;;24.90;4.32;;;20.70;76.70;;;;;;4915762;29;20059;-83
2020/12/02 07:32:28;;;;;;;28.45;4.45;;;20.70;75.50;;;;;;4915701;29;20024;-82
2020/12/02 07:35:14;;;;;;;29.88;6.32;;;20.60;76.20;;;;;;4914269;29;20028;-82
2020/12/02 07:37:42;;;;;;;32.35;4.90;;;20.60;75.70;;;;;;4915740;29;20043;-81
2020/12/02 07:40:37;;;;;;;28.15;5.03;;;20.60;76.30;;;;;;4915892;29;20057;-82
2020/12/02 07:43:17;;;;;;;26.15;6.15;;;20.60;75.70;;;;;;4915345;29;20095;-81
2020/12/02 07:45:45;;;;;;;25.52;4.93;;;20.50;75.20;;;;;;4915759;29;20474;-82
2020/12/02 07:48:34;;;;;;;31.50;4.95;;;20.50;75.50;;;;;;4914691;29;20569;-80
2020/12/02 07:51:27;;;;;;;32.22;6.28;;;20.60;75.90;;;;;;4915447;29;20047;-82
2020/12/02 07:54:09;;;;;;;;;;;20.60;75.20;;;;;;4905830;29;20040;-82
2020/12/02 07:56:43;;;;;;;26.55;4.30;;;20.60;74.90;;;;;;4916136;29;19923;-83
2020/12/02 07:59:21;;;;;;;28.45;5.32;;;20.60;75.30;;;;;;4929058;29;20032;-81
2020/12/02 08:01:48;;;;;;;26.63;4.57;;;20.60;75.40;;;;;;4934529;29;20020;-82
2020/12/02 08:04:36;;;;;;;31.33;4.55;;;20.30;78.70;;;;;;4934914;29;20023;-82
2020/12/02 08:07:09;;;;;;;34.92;5.68;;;19.90;80.70;;;;;;4936038;29;20078;-82
2020/12/02 08:09:45;;;;;;;33.05;4.68;;;19.80;83.20;;;;;;4935822;29;20024;-82
2020/12/02 08:12:18;;;;;;;31.83;4.75;;;19.80;83.70;;;;;;4936299;29;20034;-82
2020/12/02 08:15:00;;;;;;;37.40;5.55;;;19.80;82.40;;;;;;4935712;29;20028;-82
2020/12/02 08:17:30;;;;;;;43.85;6.18;;;19.80;84.60;;;;;;4935762;29;20035;-81
2020/12/02 08:19:59;;;;;;;35.80;5.63;;;19.60;87.30;;;;;;4935825;29;20055;-82
2020/12/02 08:22:44;;;;;;;42.28;5.65;;;19.30;88.50;;;;;;4936294;29;20036;-82
2020/12/02 08:25:30;;;;;;;37.40;6.13;;;19.20;89.50;;;;;;4935708;29;20032;-82
2020/12/02 08:28:07;;;;;;;26.55;5.07;;;19.10;87.10;;;;;;4935935;29;20067;-82
2020/12/02 08:30:35;;;;;;;32.17;4.72;;;19.00;87.20;;;;;;4931160;29;20091;-81
2020/12/02 08:33:09;;;;;;;27.15;4.28;;;19.00;90.00;;;;;;4916368;29;20091;-81
2020/12/02 08:35:46;;;;;;;34.70;6.10;;;19.00;89.50;;;;;;4916873;29;20120;-81
2020/12/02 08:38:26;;;;;;;31.15;5.28;;;18.80;88.70;;;;;;4916616;29;20028;-82
2020/12/02 08:40:55;;;;;;;35.72;5.13;;;18.70;89.20;;;;;;4916557;29;20578;-81
2020/12/02 08:43:33;;;;;;;25.08;4.30;;;18.70;89.20;;;;;;4916170;29;20040;-82
2020/12/02 08:46:07;;;;;;;29.88;4.90;;;18.70;88.50;;;;;;4914528;29;20138;-82
2020/12/02 08:48:35;;;;;;;27.45;5.15;;;18.80;88.30;;;;;;4916264;29;20024;-83
2020/12/02 08:51:07;;;;;;;31.83;4.43;;;18.80;88.40;;;;;;4898701;29;20032;-83
2020/12/02 08:53:35;;;;;;;25.80;4.95;;;18.80;89.10;;;;;;4899439;29;20078;-81
2020/12/02 08:56:02;;;;;;;19.92;4.03;;;18.90;84.90;;;;;;4916289;29;20139;-82
2020/12/02 08:58:31;;;;;;;25.00;4.72;;;19.00;85.70;;;;;;4930950;29;20061;-82
2020/12/02 09:00:59;;;;;;;24.83;4.63;;;19.00;85.20;;;;;;4930838;29;20027;-84
2020/12/02 09:03:26;;;;;;;30.10;4.43;;;19.10;83.90;;;;;;4916251;29;20024;-83
2020/12/02 09:05:57;;;;;;;31.13;4.88;;;19.10;81.70;;;;;;4900115;29;20331;-82
2020/12/02 09:08:24;;;;;;;31.92;5.93;;;19.10;82.10;;;;;;4917073;29;20047;-82
2020/12/02 09:10:52;;;;;;;28.90;5.00;;;19.20;82.10;;;;;;4915964;29;20039;-81
2020/12/02 09:13:19;;;;;;;23.77;4.55;;;19.20;81.70;;;;;;4916632;29;20050;-81
2020/12/02 09:15:47;;;;;;;30.85;5.43;;;19.10;82.40;;;;;;4916633;29;20024;-83
2020/12/02 09:18:14;;;;;;;29.85;4.82;;;19.20;83.00;;;;;;4916102;29;20431;-83
2020/12/02 09:20:41;;;;;;;26.98;4.70;;;19.20;83.60;;;;;;4916790;29;20024;-83
2020/12/02 09:23:09;;;;;;;28.85;5.05;;;19.20;83.00;;;;;;4916176;29;20108;-85
2020/12/02 09:25:36;;;;;;;27.23;4.50;;;19.10;83.00;;;;;;4915953;29;20428;-79
2020/12/02 09:28:03;;;;;;;29.52;4.30;;;19.20;83.30;;;;;;4916381;29;20111;-83
2020/12/02 09:30:31;;;;;;;28.33;4.45;;;19.20;84.50;;;;;;4915086;29;20029;-81
2020/12/02 09:32:58;;;;;;;20.75;3.28;;;19.10;83.80;;;;;;4898850;29;20021;-81
2020/12/02 09:35:26;;;;;;;28.98;4.40;;;19.10;84.10;;;;;;4916536;29;20025;-84
2020/12/02 09:37:53;;;;;;;30.85;4.90;;;19.20;83.20;;;;;;4916557;29;20083;-81
2020/12/02 09:40:21;;;;;;;24.48;4.18;;;19.30;82.30;;;;;;4916296;29;20059;-82
2020/12/02 09:43:17;;;;;;;29.33;4.35;;;19.30;81.70;;;;;;4899491;29;20083;-81
2020/12/02 09:46:08;;;;;;;23.65;4.15;;;19.30;82.60;;;;;;4915515;29;20036;-82
2020/12/02 09:48:35;;;;;;;29.25;4.95;;;19.10;81.90;;;;;;4915473;29;20046;-82
2020/12/02 09:51:21;;;;;;;26.63;4.68;;;19.20;82.50;;;;;;4915357;29;20107;-80
2020/12/02 09:53:50;;;;;;;28.75;4.43;;;19.20;81.50;;;;;;4898842;29;20033;-81
2020/12/02 09:56:18;;;;;;;23.70;3.75;;;19.20;80.80;;;;;;4915749;29;20048;-82
2020/12/02 09:58:46;;;;;;;23.00;4.05;;;19.20;79.60;;;;;;4916218;29;20035;-81
2020/12/02 10:01:19;;;;;;;25.17;4.38;;;19.30;81.00;;;;;;4919800;29;20034;-80
2020/12/02 10:03:55;;;;;;;26.00;4.85;;;19.30;80.20;;;;;;4919177;29;20428;-80
2020/12/02 10:06:56;;;;;;;24.02;4.03;;;19.30;80.60;;;;;;4910279;29;20123;-80
2020/12/02 10:09:37;;;;;;;24.48;4.00;;;19.30;81.60;;;;;;4919666;29;20502;-81
2020/12/02 10:12:13;;;;;;;29.00;5.45;;;19.10;84.00;;;;;;4907428;29;20128;-80
2020/12/02 10:15:08;;;;;;;27.08;5.28;;;18.90;87.30;;;;;;4909187;29;20032;-81
2020/12/02 10:18:00;;;;;;;24.48;5.63;;;18.80;88.10;;;;;;4934570;29;20114;-80
2020/12/02 10:20:44;;;;;;;29.50;5.15;;;18.70;87.70;;;;;;4932807;29;20104;-79
2020/12/02 10:23:24;;;;;;;27.73;4.20;;;18.60;89.60;;;;;;4912463;29;20036;-81
2020/12/02 10:26:34;;;;;;;26.90;3.85;;;18.50;89.60;;;;;;4900604;29;20175;-81
2020/12/02 10:29:18;;;;;;;31.13;4.35;;;18.50;89.90;;;;;;4905933;29;20431;-82
2020/12/02 10:31:57;;;;;;;32.38;4.35;;;18.30;90.50;;;;;;4897207;29;20052;-86
2020/12/02 10:34:34;;;;;;;29.38;4.40;;;18.40;90.70;;;;;;4912343;29;20052;-79
2020/12/02 10:37:08;;;;;;;31.17;5.78;;;18.40;91.00;;;;;;4910839;29;20535;-80
2020/12/02 10:39:36;;;;;;;30.75;4.80;;;18.40;90.60;;;;;;4908294;29;20024;-78
2020/12/02 10:42:25;;;;;;;21.02;3.95;;;18.50;91.30;;;;;;4909735;29;20058;-81
2020/12/02 10:44:58;;;;;;;35.83;4.47;;;18.50;91.20;;;;;;4910219;29;20062;-80
2020/12/02 10:47:43;;;;;;;32.97;4.68;;;18.40;90.90;;;;;;4911488;29;20441;-82
2020/12/02 10:50:10;;;;;;;25.88;4.50;;;18.40;91.00;;;;;;4909419;29;20379;-81
2020/12/02 10:52:39;;;;;;;24.75;4.22;;;18.30;90.90;;;;;;4909937;29;20024;-82
2020/12/02 10:55:12;;;;;;;26.90;4.97;;;18.30;91.60;;;;;;4907512;29;20023;-82
2020/12/02 10:57:41;;;;;;;32.90;4.75;;;18.30;91.10;;;;;;4910409;29;20052;-83
2020/12/02 11:00:12;;;;;;;23.17;4.30;;;18.40;91.50;;;;;;4914853;29;20534;-83
2020/12/02 11:02:40;;;;;;;27.75;4.85;;;18.40;91.50;;;;;;4916495;29;20028;-83
2020/12/02 11:05:09;;;;;;;29.67;4.88;;;18.50;91.60;;;;;;4914893;29;20474;-82
2020/12/02 11:07:49;;;;;;;28.33;4.80;;;18.50;91.30;;;;;;4893924;29;20079;-82
2020/12/02 11:10:20;;;;;;;31.42;5.35;;;18.50;90.20;;;;;;4913113;29;20479;-81
2020/12/02 11:13:00;;;;;;;28.05;5.60;;;18.40;90.50;;;;;;4912402;29;20028;-85
2020/12/02 11:15:45;;;;;;;25.20;4.00;;;18.40;90.70;;;;;;4915184;29;20024;-82
2020/12/02 11:18:41;;;;;;;36.00;5.57;;;18.50;90.90;;;;;;4900202;29;20039;-85
2020/12/02 11:21:26;;;;;;;34.65;5.78;;;18.40;90.30;;;;;;4919348;29;20111;-84
2020/12/02 11:24:12;;;;;;;29.85;5.18;;;18.30;91.20;;;;;;4899480;29;20491;-82
2020/12/02 11:26:40;;;;;;;28.02;4.38;;;18.30;91.80;;;;;;4917039;29;20138;-80
2020/12/02 11:29:11;;;;;;;36.75;4.90;;;18.30;91.90;;;;;;4917059;29;20064;-82
2020/12/02 11:31:48;;;;;;;32.45;4.47;;;18.30;92.20;;;;;;4918042;29;20036;-82
2020/12/02 11:34:56;;;;;;;34.65;6.03;;;18.20;92.80;;;;;;4930025;29;20391;-83
2020/12/02 11:37:27;;;;;;;33.38;5.15;;;18.20;93.00;;;;;;4937344;29;20050;-84
2020/12/02 11:39:57;;;;;;;30.80;4.80;;;18.30;93.00;;;;;;4906536;29;20133;-83
2020/12/02 11:42:29;;;;;;;37.45;4.80;;;18.30;93.20;;;;;;4918261;29;20206;-83
2020/12/02 11:45:10;;;;;;;36.75;5.72;;;18.20;93.10;;;;;;4916864;29;20056;-81
2020/12/02 11:48:14;;;;;;;38.03;5.43;;;18.10;92.50;;;;;;4900020;29;20521;-82
2020/12/02 11:51:17;;;;;;;40.60;5.95;;;18.00;92.90;;;;;;4917853;29;20040;-81
2020/12/02 11:54:10;;;;;;;35.28;5.80;;;17.90;93.60;;;;;;4918462;29;20028;-81
2020/12/02 11:56:52;;;;;;;33.08;5.43;;;17.80;93.50;;;;;;4917074;29;20575;-81
2020/12/02 11:59:29;;;;;;;39.00;5.32;;;17.90;94.20;;;;;;4917918;29;20481;-82
2020/12/02 12:02:02;;;;;;;42.42;6.13;;;18.00;93.80;;;;;;4917042;29;20079;-79
2020/12/02 12:04:36;;;;;;;36.65;5.00;;;17.90;93.50;;;;;;4917288;29;20069;-79
2020/12/02 12:07:44;;;;;;;36.58;5.53;;;17.90;92.80;;;;;;4916536;29;20028;-80
2020/12/02 12:10:31;;;;;;;32.03;4.97;;;18.00;93.40;;;;;;4900132;29;20063;-83
2020/12/02 12:13:25;;;;;;;34.22;5.53;;;17.90;92.30;;;;;;4915947;29;20100;-81
2020/12/02 12:16:06;;;;;;;30.23;5.20;;;18.00;92.60;;;;;;4911169;29;20036;-81
2020/12/02 12:18:50;;;;;;;37.65;5.50;;;18.00;92.70;;;;;;4916578;29;20051;-82
2020/12/02 12:21:20;;;;;;;31.92;4.53;;;17.90;92.60;;;;;;4935952;29;20114;-81
2020/12/02 12:24:17;;;;;;;37.70;6.00;;;17.90;92.50;;;;;;4917330;29;20551;-82
2020/12/02 12:26:52;;;;;;;38.72;5.25;;;17.80;92.30;;;;;;4917018;29;20075;-82
2020/12/02 12:29:20;;;;;;;32.08;5.28;;;17.90;92.90;;;;;;4915814;29;20380;-81
2020/12/02 12:31:56;;;;;;;33.10;5.65;;;18.00;92.60;;;;;;4916880;29;20039;-82
2020/12/02 12:34:58;;;;;;;29.35;4.03;;;18.00;92.70;;;;;;4916891;29;20021;-81
2020/12/02 12:37:48;;;;;;;32.08;5.68;;;17.90;92.50;;;;;;4916630;29;20048;-82
2020/12/02 12:40:29;;;;;;;38.45;5.05;;;17.80;93.10;;;;;;4916755;29;20501;-80
2020/12/02 12:42:58;;;;;;;29.88;5.47;;;17.80;92.80;;;;;;4919230;29;20032;-83
2020/12/02 12:45:45;;;;;;;29.88;5.55;;;17.80;93.00;;;;;;4935930;29;20383;-83
2020/12/02 12:48:18;;;;;;;33.45;4.95;;;17.70;93.20;;;;;;4923518;29;20066;-82
2020/12/02 12:50:48;;;;;;;37.53;5.53;;;17.80;93.30;;;;;;4916609;29;20036;-82
2020/12/02 12:53:19;;;;;;;33.58;5.03;;;17.80;93.50;;;;;;4916933;29;20044;-81
2020/12/02 12:55:46;;;;;;;28.50;4.82;;;17.80;93.40;;;;;;4899471;29;20032;-83
2020/12/02 12:58:35;;;;;;;32.80;4.72;;;17.80;93.50;;;;;;4916740;29;20107;-83
2020/12/02 13:01:03;;;;;;;28.88;4.88;;;17.80;92.80;;;;;;4916117;29;20024;-83
2020/12/02 13:03:31;;;;;;;36.20;5.07;;;17.70;92.70;;;;;;4899955;29;20035;-82
2020/12/02 13:06:14;;;;;;;28.17;4.68;;;17.70;93.00;;;;;;4915936;29;20035;-83
2020/12/02 13:08:50;;;;;;;35.60;5.80;;;17.80;93.40;;;;;;4899701;29;20401;-81
2020/12/02 13:11:38;;;;;;;28.48;4.57;;;17.70;93.30;;;;;;4916722;29;20492;-81
2020/12/02 13:14:15;;;;;;;30.73;5.00;;;17.70;92.90;;;;;;4916666;29;20368;-83
2020/12/02 13:17:03;;;;;;;31.45;4.03;;;17.80;93.30;;;;;;4916242;29;20395;-83
2020/12/02 13:19:51;;;;;;;30.58;5.10;;;17.90;92.80;;;;;;4916476;29;20479;-83